Time;durP1;ratioP1;P1;durP2;ratioP2;P2;SDS_P1;SDS_P2;PMS_P1;PMS_P2;Temp;Humidity;BMP_temperature;BMP_pressure;BME280_temperature;BME280_humidity;BME280_pressure;Samples;Min_cycle;Max_cycle;Signal;HPM_P1;HPM_P2
2022/11/02 00:00:28;;;;;;;12.90;3.20;;;;;;;13.45;77.29;101236.00;5019859;28;20036;-81
2022/11/02 00:02:54;;;;;;;11.77;3.37;;;;;;;13.46;77.18;101234.94;5018876;28;21083;-83
2022/11/02 00:05:23;;;;;;;14.93;3.13;;;;;;;13.50;77.36;101236.16;5026709;28;20051;-81
2022/11/02 00:07:52;;;;;;;9.57;2.80;;;;;;;13.52;77.22;101227.78;5018872;28;20029;-83
2022/11/02 00:10:18;;;;;;;12.97;3.07;;;;;;;13.49;77.51;101234.50;5018572;28;20094;-81
2022/11/02 00:12:44;;;;;;;12.33;2.97;;;;;;;13.59;76.86;101247.59;5018750;28;20091;-83
2022/11/02 00:15:10;;;;;;;12.43;3.40;;;;;;;13.59;77.63;101247.59;5019804;28;20037;-86
2022/11/02 00:17:36;;;;;;;13.50;3.67;;;;;;;13.58;78.16;101240.47;5018559;28;20400;-82
2022/11/02 00:20:03;;;;;;;13.90;3.77;;;;;;;13.58;78.23;101217.88;5019106;28;20120;-84
2022/11/02 00:22:30;;;;;;;10.90;3.00;;;;;;;13.64;77.62;101233.31;5000926;28;20053;-84
2022/11/02 00:24:55;;;;;;;11.97;3.13;;;;;;;13.64;77.12;101239.59;5018967;28;20111;-84
2022/11/02 00:27:22;;;;;;;13.00;3.80;;;;;;;13.68;77.03;101229.06;5034751;28;20976;-82
2022/11/02 00:29:48;;;;;;;12.67;3.47;;;;;;;13.72;76.35;101240.38;5019272;28;20094;-84
2022/11/02 00:32:13;;;;;;;14.60;3.93;;;;;;;13.76;76.12;101226.09;5034289;28;20482;-82
2022/11/02 00:34:38;;;;;;;15.50;4.67;;;;;;;13.66;77.00;101226.59;5034791;28;20044;-82
2022/11/02 00:37:04;;;;;;;14.43;3.47;;;;;;;13.68;76.52;101234.53;5017824;28;20045;-84
2022/11/02 00:39:30;;;;;;;10.10;2.60;;;;;;;13.78;75.62;101234.88;5034258;28;20186;-82
2022/11/02 00:41:55;;;;;;;8.83;2.57;;;;;;;13.76;75.72;101222.53;5018236;28;20529;-85
2022/11/02 00:44:20;;;;;;;12.33;3.67;;;;;;;13.82;74.93;101232.53;5019654;28;20143;-87
2022/11/02 00:46:45;;;;;;;12.40;2.80;;;;;;;13.84;74.71;101233.13;5018038;28;20149;-85
2022/11/02 00:49:11;;;;;;;7.97;2.47;;;;;;;13.91;74.12;101233.06;5018290;28;21338;-85
2022/11/02 00:51:36;;;;;;;7.70;2.20;;;;;;;13.93;74.12;101244.59;5019441;28;20091;-85
2022/11/02 00:54:02;;;;;;;12.53;2.80;;;;;;;13.92;74.40;101254.63;5018150;28;20052;-85
2022/11/02 00:56:27;;;;;;;10.53;2.60;;;;;;;13.89;74.40;101240.66;5018641;28;20608;-83
2022/11/02 00:58:52;;;;;;;9.97;2.60;;;;;;;13.78;74.95;101248.47;5018687;28;20052;-83
2022/11/02 01:01:18;;;;;;;12.57;2.43;;;;;;;13.76;74.68;101253.34;5019738;28;20714;-85
2022/11/02 01:03:43;;;;;;;8.67;2.33;;;;;;;13.67;75.36;101254.66;5018433;28;20402;-84
2022/11/02 01:06:14;;;;;;;7.67;2.00;;;;;;;13.67;74.59;101263.66;5019267;28;20401;-83
2022/11/02 01:08:39;;;;;;;11.27;2.53;;;;;;;13.84;72.56;101269.38;5018124;28;20034;-86
2022/11/02 01:11:13;;;;;;;9.27;2.50;;;;;;;13.78;73.05;101273.00;5017864;28;20052;-83
2022/11/02 01:13:38;;;;;;;10.90;2.42;;;;;;;13.63;73.91;101270.59;5018574;28;20036;-86
2022/11/02 01:16:05;;;;;;;5.67;2.00;;;;;;;13.58;73.80;101272.31;5018334;28;20480;-80
2022/11/02 01:18:31;;;;;;;7.47;1.90;;;;;;;13.59;73.64;101279.44;5017877;28;20034;-85
2022/11/02 01:20:57;;;;;;;8.87;2.20;;;;;;;13.48;73.96;101276.38;5018433;28;20043;-84
2022/11/02 01:23:22;;;;;;;10.63;2.20;;;;;;;13.51;73.04;101272.38;5032980;28;20049;-82
2022/11/02 01:25:48;;;;;;;10.10;2.27;;;;;;;13.51;72.29;101289.53;5018308;28;20140;-88
2022/11/02 01:28:13;;;;;;;6.47;2.10;;;;;;;13.39;72.85;101274.13;5018466;28;20049;-83
2022/11/02 01:30:39;;;;;;;6.83;2.10;;;;;;;13.36;73.19;101277.31;5018552;28;20049;-83
2022/11/02 01:33:05;;;;;;;7.93;2.10;;;;;;;13.26;73.06;101275.88;5017721;28;20111;-81
2022/11/02 01:35:30;;;;;;;7.90;2.03;;;;;;;13.23;72.79;101279.03;5033712;28;20072;-84
2022/11/02 01:37:56;;;;;;;7.30;1.77;;;;;;;13.18;72.73;101287.00;5017806;28;20029;-83
2022/11/02 01:40:21;;;;;;;7.03;2.03;;;;;;;13.23;72.31;101287.19;5018003;28;20033;-81
2022/11/02 01:42:47;;;;;;;9.67;2.47;;;;;;;13.16;72.34;101280.94;5018757;28;20073;-82
2022/11/02 01:45:13;;;;;;;9.50;2.30;;;;;;;13.20;72.03;101295.78;5018306;28;20405;-84
2022/11/02 01:47:44;;;;;;;8.37;2.20;;;;;;;13.16;72.01;101287.22;5020497;28;20055;-83
2022/11/02 01:50:17;;;;;;;7.07;1.87;;;;;;;13.14;72.27;101293.94;5021220;28;20036;-82
2022/11/02 01:52:42;;;;;;;7.10;2.00;;;;;;;13.09;72.64;101297.28;5021062;28;20044;-82
2022/11/02 01:55:15;;;;;;;6.90;2.00;;;;;;;13.06;72.40;101294.19;5021641;28;20045;-84
2022/11/02 01:57:44;;;;;;;6.70;2.00;;;;;;;13.07;72.49;101312.16;5020928;28;20060;-85
2022/11/02 02:00:12;;;;;;;7.87;2.00;;;;;;;12.98;72.71;101303.44;5021989;28;20102;-85
2022/11/02 02:02:46;;;;;;;8.33;2.27;;;;;;;12.91;73.63;101311.63;5004700;28;20047;-83
2022/11/02 02:05:13;;;;;;;12.27;2.57;;;;;;;12.94;72.90;101300.31;5020629;28;20103;-82
2022/11/02 02:07:39;;;;;;;7.30;1.93;;;;;;;12.89;73.54;101291.13;5021158;28;20366;-83
2022/11/02 02:10:07;;;;;;;8.00;2.00;;;;;;;12.89;73.35;101308.31;5020763;28;20072;-83
2022/11/02 02:12:35;;;;;;;7.87;2.00;;;;;;;12.89;73.06;101294.69;5021279;28;20034;-83
2022/11/02 02:15:00;;;;;;;9.53;2.40;;;;;;;12.85;73.56;101307.03;5021476;28;20440;-84
2022/11/02 02:17:30;;;;;;;8.00;2.03;;;;;;;12.89;72.92;101312.88;5021347;28;20041;-84
2022/11/02 02:23:10;;;;;;;9.77;2.10;;;;;;;12.92;72.79;101305.13;5020551;28;20154;-83
2022/11/02 02:25:57;;;;;;;7.40;1.90;;;;;;;12.84;73.12;101303.50;5020441;28;20057;-84
2022/11/02 02:28:45;;;;;;;6.37;2.20;;;;;;;12.76;73.50;101298.28;5020683;28;20068;-82
2022/11/02 02:31:41;;;;;;;9.70;1.80;;;;;;;12.79;73.88;101306.00;5020648;28;20037;-86
2022/11/02 02:34:22;;;;;;;11.10;2.10;;;;;;;12.67;74.06;101313.19;5018923;28;20041;-86
2022/11/02 02:36:59;;;;;;;10.03;2.20;;;;;;;12.71;74.08;101310.88;5020112;28;20541;-83
2022/11/02 02:39:52;;;;;;;8.80;1.97;;;;;;;12.70;74.21;101304.63;5020778;28;20022;-81
2022/11/02 02:42:23;;;;;;;7.67;2.03;;;;;;;12.56;74.69;101298.38;5021266;28;20464;-81
2022/11/02 02:45:16;;;;;;;11.77;2.20;;;;;;;12.63;74.94;101317.38;5020537;28;20041;-83
2022/11/02 02:47:48;;;;;;;9.97;2.73;;;;;;;12.51;75.17;101317.19;5020460;28;20120;-82
2022/11/02 02:50:19;;;;;;;8.13;2.03;;;;;;;12.50;75.05;101312.81;5020882;28;20045;-83
2022/11/02 02:52:48;;;;;;;9.00;2.30;;;;;;;12.48;75.23;101312.19;5020777;28;20061;-85
2022/11/02 02:55:20;;;;;;;8.33;2.20;;;;;;;12.40;75.57;101315.13;5019262;28;20528;-81
2022/11/02 02:57:46;;;;;;;9.03;2.37;;;;;;;12.43;75.37;101301.13;5021251;28;20041;-84
2022/11/02 03:01:05;;;;;;;9.03;2.37;;;;;;;12.41;75.91;101311.38;5020867;28;20130;-82
2022/11/02 03:03:33;;;;;;;10.77;2.83;;;;;;;12.32;75.82;101311.59;5020035;28;20033;-85
2022/11/02 03:06:15;;;;;;;11.23;2.50;;;;;;;12.25;76.65;101318.09;5018346;28;20029;-82
2022/11/02 03:08:46;;;;;;;11.00;2.57;;;;;;;12.21;76.90;101305.97;4998672;28;20516;-83
2022/11/02 03:11:13;;;;;;;10.60;2.63;;;;;;;12.19;77.07;101313.50;5020181;28;20768;-81
2022/11/02 03:13:52;;;;;;;12.27;2.63;;;;;;;12.17;76.71;101310.97;5020870;28;20037;-85
2022/11/02 03:16:41;;;;;;;13.77;2.67;;;;;;;12.22;76.46;101319.34;5018033;28;20037;-82
2022/11/02 03:19:23;;;;;;;13.73;2.40;;;;;;;12.13;76.77;101313.31;5019533;28;20049;-81
2022/11/02 03:22:01;;;;;;;10.63;2.47;;;;;;;12.19;76.70;101314.34;5020122;28;20033;-82
2022/11/02 03:24:41;;;;;;;10.60;2.47;;;;;;;12.29;75.93;101325.63;5020684;28;20417;-84
2022/11/02 03:27:10;;;;;;;13.33;2.63;;;;;;;12.27;75.99;101329.59;5020491;28;20469;-84
2022/11/02 03:29:38;;;;;;;13.27;2.77;;;;;;;12.19;76.11;101324.38;5019271;28;20523;-84
2022/11/02 03:32:12;;;;;;;11.40;3.07;;;;;;;12.18;76.24;101334.38;5020119;28;20991;-83
2022/11/02 03:34:46;;;;;;;11.35;2.90;;;;;;;12.21;76.29;101330.41;5019612;28;20036;-84
2022/11/02 03:37:20;;;;;;;11.32;2.88;;;;;;;12.15;76.29;101341.09;5020060;28;20044;-82
2022/11/02 03:39:48;;;;;;;;;;;;;;;12.36;75.32;101341.88;5020546;28;20072;-84
2022/11/02 03:42:18;;;;;;;15.73;2.73;;;;;;;12.24;75.55;101339.00;5019396;28;19934;-83
2022/11/02 03:44:45;;;;;;;13.97;3.03;;;;;;;12.21;75.62;101338.56;5002124;28;20086;-84
2022/11/02 03:47:14;;;;;;;14.03;2.77;;;;;;;12.13;76.07;101342.34;5035090;28;20048;-80
2022/11/02 03:49:41;;;;;;;13.67;2.73;;;;;;;12.16;75.92;101352.81;5019248;28;20076;-83
2022/11/02 03:52:11;;;;;;;12.90;2.70;;;;;;;12.20;75.85;101353.19;5035315;28;20048;-86
2022/11/02 03:55:02;;;;;;;11.73;2.93;;;;;;;12.19;75.66;101332.53;5019451;28;20067;-83
2022/11/02 03:57:34;;;;;;;12.97;3.17;;;;;;;12.21;75.37;101354.88;5019624;28;20041;-86
2022/11/02 04:00:16;;;;;;;13.83;3.03;;;;;;;12.21;75.37;101366.59;5019067;28;20481;-83
2022/11/02 04:02:45;;;;;;;14.70;2.63;;;;;;;12.22;75.23;101368.25;5019882;28;20148;-81
2022/11/02 04:05:11;;;;;;;12.50;2.93;;;;;;;12.14;75.80;101365.75;5018545;28;20033;-90
2022/11/02 04:14:36;;;;;;;14.70;3.23;;;;;;;12.09;75.99;101363.66;5018616;28;20083;-84
2022/11/02 04:16:14;;;;;;;12.27;2.67;;;;;;;12.08;76.39;101378.28;5019458;28;20075;-84
2022/11/02 04:21:24;;;;;;;11.30;2.38;;;;;;;12.15;76.24;101391.88;5018915;28;20067;-83
2022/11/02 04:26:35;;;;;;;18.15;3.28;;;;;;;12.09;76.83;101387.25;5019105;28;20082;-82
2022/11/02 04:29:00;;;;;;;12.17;2.60;;;;;;;12.13;76.64;101408.38;5018255;28;20307;-84
2022/11/02 04:31:25;;;;;;;15.87;3.27;;;;;;;12.08;76.89;101396.47;5018715;28;20040;-81
2022/11/02 04:33:51;;;;;;;14.57;3.43;;;;;;;12.03;77.18;101396.25;5019175;28;20078;-85
2022/11/02 04:36:16;;;;;;;13.73;2.77;;;;;;;12.09;76.95;101406.28;5018099;28;20120;-83
2022/11/02 04:38:41;;;;;;;11.20;2.37;;;;;;;12.09;77.41;101411.69;5019037;28;20120;-84
2022/11/02 04:43:59;;;;;;;13.23;3.10;;;;;;;12.09;77.41;101423.41;5018125;28;20048;-84
2022/11/02 04:46:27;;;;;;;12.90;3.27;;;;;;;12.05;77.37;101433.03;5020383;28;20041;-83
2022/11/02 04:48:52;;;;;;;17.67;3.30;;;;;;;12.07;77.44;101430.09;5018425;28;20820;-82
2022/11/02 04:51:19;;;;;;;14.77;3.33;;;;;;;12.02;77.57;101438.03;5033503;28;20116;-83
2022/11/02 04:53:48;;;;;;;10.83;2.53;;;;;;;12.08;76.98;101439.94;5018689;28;20036;-84
2022/11/02 04:56:14;;;;;;;13.20;3.00;;;;;;;11.97;77.88;101450.34;5018350;28;20409;-86
2022/11/02 04:58:39;;;;;;;12.57;2.63;;;;;;;11.93;77.80;101435.47;5018881;28;20036;-82
2022/11/02 05:01:06;;;;;;;14.97;2.87;;;;;;;12.03;77.16;101462.25;5018626;28;20065;-82
2022/11/02 05:03:32;;;;;;;13.67;3.03;;;;;;;11.92;77.73;101450.09;5017278;28;20065;-81
2022/11/02 05:05:57;;;;;;;15.30;2.90;;;;;;;11.97;77.38;101458.50;5034332;28;20043;-82
2022/11/02 05:08:23;;;;;;;10.20;2.70;;;;;;;12.05;76.96;101459.34;5018769;28;20108;-84
2022/11/02 05:10:48;;;;;;;11.33;2.70;;;;;;;11.91;77.74;101443.00;5019192;28;20508;-82
2022/11/02 05:13:14;;;;;;;13.67;3.00;;;;;;;11.91;77.38;101464.72;5019306;28;20033;-83
2022/11/02 05:15:39;;;;;;;12.30;2.83;;;;;;;12.02;76.96;101466.00;5019507;28;20037;-84
2022/11/02 05:18:05;;;;;;;11.13;2.97;;;;;;;11.99;77.23;101482.72;5018291;28;20098;-84
2022/11/02 05:20:30;;;;;;;12.17;2.60;;;;;;;12.06;76.85;101488.19;5020360;28;20029;-82
2022/11/02 05:22:56;;;;;;;13.80;3.33;;;;;;;12.03;77.05;101483.16;5023142;28;20513;-84
2022/11/02 05:25:21;;;;;;;11.30;2.80;;;;;;;11.92;77.83;101498.97;5021774;28;20053;-82
2022/11/02 05:27:46;;;;;;;13.60;2.90;;;;;;;12.02;77.03;101497.78;5022688;28;20068;-83
2022/11/02 05:30:12;;;;;;;13.43;2.70;;;;;;;11.96;77.08;101499.44;5022073;28;20049;-82
2022/11/02 05:32:37;;;;;;;14.77;2.83;;;;;;;11.99;76.82;101513.47;5022585;28;20041;-82
2022/11/02 05:35:03;;;;;;;14.27;3.07;;;;;;;11.83;78.02;101503.75;5022071;28;20116;-83
2022/11/02 05:37:29;;;;;;;14.73;3.20;;;;;;;11.96;77.03;101507.59;5021912;28;20025;-83
2022/11/02 05:39:54;;;;;;;13.57;2.90;;;;;;;12.01;76.69;101518.69;5035457;28;20049;-83
2022/11/02 05:42:19;;;;;;;13.40;2.83;;;;;;;11.88;76.87;101519.44;5021351;28;20493;-86
2022/11/02 05:44:45;;;;;;;13.00;2.90;;;;;;;11.90;77.03;101527.38;5037175;28;20044;-83
2022/11/02 05:47:10;;;;;;;13.87;3.30;;;;;;;11.82;77.42;101528.41;5035883;28;20339;-82
2022/11/02 05:49:35;;;;;;;14.63;3.23;;;;;;;11.75;77.86;101525.66;5022834;28;20038;-82
2022/11/02 05:52:01;;;;;;;13.50;3.13;;;;;;;11.70;78.08;101532.75;5037705;28;20662;-80
2022/11/02 05:54:26;;;;;;;12.97;3.00;;;;;;;11.65;78.46;101539.63;4998370;28;20626;-83
2022/11/02 05:56:51;;;;;;;13.33;3.00;;;;;;;11.68;78.00;101535.63;5021817;28;20056;-82
2022/11/02 05:59:17;;;;;;;10.70;2.70;;;;;;;11.60;78.45;101552.97;5020777;28;20048;-82
2022/11/02 06:01:42;;;;;;;11.47;2.80;;;;;;;11.58;78.49;101559.63;5020919;28;20060;-82
2022/11/02 06:04:07;;;;;;;13.03;3.00;;;;;;;11.55;78.13;101566.28;5020904;28;20786;-84
2022/11/02 06:06:33;;;;;;;14.50;3.00;;;;;;;11.46;78.89;101562.91;5020758;28;20041;-81
2022/11/02 06:08:58;;;;;;;12.30;3.03;;;;;;;11.44;78.73;101570.41;5021137;28;20037;-84
2022/11/02 06:11:23;;;;;;;12.40;2.73;;;;;;;11.43;78.93;101576.03;5003369;28;20449;-82
2022/11/02 06:13:50;;;;;;;12.67;2.93;;;;;;;11.33;79.41;101570.97;5036210;28;20042;-81
2022/11/02 06:16:16;;;;;;;13.00;2.80;;;;;;;11.34;79.25;101586.19;5021005;28;20461;-85
2022/11/02 06:18:42;;;;;;;13.40;2.80;;;;;;;11.22;80.07;101585.91;5021970;28;20468;-82
2022/11/02 06:21:08;;;;;;;12.93;2.80;;;;;;;11.17;80.27;101593.81;5020373;28;20071;-86
2022/11/02 06:23:34;;;;;;;10.70;2.93;;;;;;;11.18;80.18;101590.06;5002529;28;20532;-81
2022/11/02 06:26:00;;;;;;;15.23;3.23;;;;;;;11.15;80.35;101602.16;5034786;28;20065;-84
2022/11/02 06:28:27;;;;;;;12.47;3.03;;;;;;;11.19;80.02;101612.59;5020848;28;20057;-87
2022/11/02 06:30:53;;;;;;;16.40;2.77;;;;;;;11.07;81.06;101599.59;5002016;28;20393;-81
2022/11/02 06:33:19;;;;;;;13.93;2.87;;;;;;;11.10;80.78;101614.63;5020560;28;20072;-82
2022/11/02 06:35:53;;;;;;;13.03;2.97;;;;;;;11.05;80.98;101633.34;5021058;28;20688;-83
2022/11/02 06:38:19;;;;;;;9.23;2.93;;;;;;;10.99;81.47;101632.25;5001566;28;20034;-83
2022/11/02 06:40:56;;;;;;;12.30;2.70;;;;;;;11.01;81.59;101629.34;5020339;28;20038;-83
2022/11/02 06:43:22;;;;;;;20.97;3.43;;;;;;;11.00;81.53;101631.19;5021034;28;20071;-83
2022/11/02 06:45:47;;;;;;;13.03;3.03;;;;;;;10.93;82.07;101643.88;5021472;28;20037;-80
2022/11/02 06:48:13;;;;;;;12.10;3.30;;;;;;;10.97;81.63;101653.28;5018698;28;20048;-81
2022/11/02 06:50:38;;;;;;;12.17;2.73;;;;;;;10.92;81.91;101664.75;5019090;28;20033;-82
2022/11/02 06:53:03;;;;;;;13.13;2.87;;;;;;;10.91;82.17;101664.94;5019546;28;20049;-82
2022/11/02 06:55:29;;;;;;;14.13;3.10;;;;;;;10.92;82.03;101667.44;5035182;28;20045;-81
2022/11/02 06:57:54;;;;;;;13.70;3.10;;;;;;;10.90;82.43;101680.34;5018306;28;20037;-83
2022/11/02 07:00:20;;;;;;;13.87;2.97;;;;;;;10.87;82.48;101690.75;5002017;28;20041;-83
2022/11/02 07:02:57;;;;;;;12.63;2.60;;;;;;;10.83;82.62;101701.13;5021112;28;20429;-83
2022/11/02 07:05:22;;;;;;;12.67;2.87;;;;;;;10.82;82.70;101702.16;5019378;28;20040;-81
2022/11/02 07:07:48;;;;;;;14.60;3.00;;;;;;;10.85;82.63;101704.47;5020956;28;20128;-80
2022/11/02 07:10:13;;;;;;;12.17;3.00;;;;;;;10.81;82.72;101716.75;5034445;28;20222;-80
2022/11/02 07:12:39;;;;;;;12.50;2.70;;;;;;;10.80;82.95;101723.22;5020062;28;20048;-83
2022/11/02 07:15:05;;;;;;;13.50;3.00;;;;;;;10.91;82.13;101730.00;5001198;28;20052;-82
2022/11/02 07:17:30;;;;;;;13.13;3.00;;;;;;;10.88;82.19;101728.53;5021267;28;20040;-84
2022/11/02 07:19:56;;;;;;;15.67;3.23;;;;;;;10.89;82.49;101740.19;5019133;28;20045;-81
2022/11/02 07:22:21;;;;;;;11.97;2.70;;;;;;;10.93;82.45;101750.47;5019852;28;20410;-83
2022/11/02 07:24:47;;;;;;;12.70;3.07;;;;;;;10.93;82.59;101758.63;5001462;28;20152;-81
2022/11/02 07:27:13;;;;;;;16.30;2.87;;;;;;;10.97;82.59;101767.19;5018672;28;20136;-81
2022/11/02 07:29:38;;;;;;;11.73;2.47;;;;;;;10.99;82.37;101757.00;5020128;28;20044;-81
2022/11/02 07:32:06;;;;;;;13.00;2.30;;;;;;;11.10;81.60;101755.66;5020616;28;20047;-83
2022/11/02 07:34:31;;;;;;;12.83;2.67;;;;;;;11.12;81.62;101759.84;5019179;28;20052;-81
2022/11/02 07:36:57;;;;;;;12.67;2.83;;;;;;;11.15;81.25;101754.03;5020135;28;20038;-82
2022/11/02 07:39:22;;;;;;;14.80;3.03;;;;;;;11.19;81.63;101762.59;5034577;28;20033;-81
2022/11/02 07:41:47;;;;;;;15.20;3.13;;;;;;;11.28;80.73;101764.16;5018567;28;20103;-82
2022/11/02 07:44:13;;;;;;;10.57;2.63;;;;;;;11.49;80.21;101776.03;5016971;28;20063;-82
2022/11/02 07:46:38;;;;;;;11.63;2.50;;;;;;;11.54;80.38;101773.59;5023539;28;20216;-80
2022/11/02 07:49:03;;;;;;;13.63;2.63;;;;;;;11.63;79.70;101771.59;5010361;28;20041;-80
2022/11/02 07:51:29;;;;;;;9.77;2.70;;;;;;;11.69;79.13;101772.66;5007840;28;20168;-79
2022/11/02 07:53:54;;;;;;;13.63;2.63;;;;;;;11.66;78.55;101780.16;5008640;28;20047;-81
2022/11/02 07:56:19;;;;;;;11.47;2.80;;;;;;;11.86;78.26;101776.78;5008769;28;20128;-81
2022/11/02 07:58:45;;;;;;;12.23;2.73;;;;;;;11.96;78.17;101793.56;5008085;28;20773;-81
2022/11/02 08:01:10;;;;;;;13.50;2.97;;;;;;;12.05;77.30;101798.84;5009536;28;20454;-82
2022/11/02 08:03:36;;;;;;;13.73;3.03;;;;;;;12.04;77.82;101791.78;5008623;28;20381;-81
2022/11/02 08:06:02;;;;;;;10.93;2.87;;;;;;;12.24;76.78;101810.91;5008109;28;20065;-85
2022/11/02 08:08:27;;;;;;;12.97;2.90;;;;;;;12.37;76.01;101799.28;5024851;28;20175;-82
2022/11/02 08:10:53;;;;;;;12.67;3.20;;;;;;;12.40;75.98;101796.16;5009015;28;20045;-80
2022/11/02 08:13:24;;;;;;;11.33;3.27;;;;;;;12.49;75.74;101813.97;5024586;28;20151;-81
2022/11/02 08:15:53;;;;;;;12.43;3.13;;;;;;;12.47;75.69;101805.19;5010166;28;20412;-82
2022/11/02 08:18:21;;;;;;;10.97;2.60;;;;;;;12.66;74.79;101814.47;5010043;28;20484;-81
2022/11/02 08:20:46;;;;;;;11.37;2.87;;;;;;;12.59;74.71;101808.16;4990803;28;21028;-81
2022/11/02 08:23:13;;;;;;;12.20;2.77;;;;;;;12.79;74.81;101814.53;5007631;28;20041;-81
2022/11/02 08:25:39;;;;;;;10.90;2.63;;;;;;;12.72;74.25;101821.84;5007469;28;20060;-81
2022/11/02 08:28:05;;;;;;;12.97;2.50;;;;;;;12.87;74.37;101815.41;5009440;28;20049;-82
2022/11/02 08:30:32;;;;;;;11.67;2.70;;;;;;;12.89;75.25;101821.47;5010752;28;20040;-80
2022/11/02 08:33:11;;;;;;;9.13;2.70;;;;;;;13.03;74.54;101825.06;5009525;28;20132;-83
2022/11/02 08:35:38;;;;;;;12.93;2.77;;;;;;;13.07;73.96;101827.22;5009499;28;20256;-82
2022/11/02 08:38:03;;;;;;;10.57;2.77;;;;;;;13.15;72.88;101824.31;5011172;28;20041;-81
2022/11/02 08:40:29;;;;;;;9.63;2.70;;;;;;;13.12;72.38;101838.31;5013993;28;20712;-82
2022/11/02 08:42:57;;;;;;;13.57;3.10;;;;;;;13.22;73.15;101834.34;5016523;28;20048;-85
2022/11/02 08:45:22;;;;;;;13.10;2.60;;;;;;;13.18;72.28;101839.38;5018078;28;20275;-84
2022/11/02 08:47:47;;;;;;;12.90;2.90;;;;;;;13.29;71.76;101846.94;5018580;28;20124;-82
2022/11/02 08:50:13;;;;;;;12.00;3.03;;;;;;;13.41;71.44;101854.53;4984617;28;20304;-85
2022/11/02 08:52:39;;;;;;;13.23;3.00;;;;;;;13.45;71.11;101855.78;5020124;28;20037;-87
2022/11/02 08:55:04;;;;;;;15.73;2.70;;;;;;;13.38;71.64;101861.25;5018528;28;20556;-85
2022/11/02 08:57:30;;;;;;;12.37;2.80;;;;;;;13.47;70.81;101857.25;5022479;28;20167;-83
2022/11/02 08:59:55;;;;;;;9.67;2.70;;;;;;;13.75;69.72;101858.13;5037259;28;20096;-81
2022/11/02 09:02:22;;;;;;;13.40;2.97;;;;;;;13.66;70.34;101868.41;5022923;28;20545;-83
2022/11/02 09:04:48;;;;;;;10.37;2.53;;;;;;;13.63;69.66;101868.81;5038703;28;20033;-82
2022/11/02 09:07:13;;;;;;;13.60;2.90;;;;;;;13.78;67.66;101871.34;5022590;28;20044;-83
2022/11/02 09:09:38;;;;;;;14.20;3.17;;;;;;;13.71;68.79;101871.34;5020891;28;20716;-84
2022/11/02 09:12:04;;;;;;;11.63;3.30;;;;;;;13.72;69.48;101866.72;5021940;28;20198;-84
2022/11/02 09:14:29;;;;;;;17.30;3.20;;;;;;;14.06;67.55;101873.88;5022457;28;20076;-83
2022/11/02 09:16:55;;;;;;;11.87;3.00;;;;;;;13.95;66.52;101867.19;5022882;28;20064;-84
2022/11/02 09:19:20;;;;;;;13.17;3.47;;;;;;;14.05;66.09;101872.22;5023583;28;20037;-84
2022/11/02 09:21:46;;;;;;;15.77;3.30;;;;;;;14.05;67.86;101874.06;5022616;28;20448;-83
2022/11/02 09:24:12;;;;;;;17.13;4.03;;;;;;;13.91;67.04;101879.53;5030373;28;20685;-85
2022/11/02 09:26:38;;;;;;;12.90;2.93;;;;;;;14.08;66.66;101876.41;5022277;28;20065;-83
2022/11/02 09:29:03;;;;;;;16.80;3.33;;;;;;;14.04;66.93;101881.41;5022232;28;21687;-84
2022/11/02 09:31:29;;;;;;;11.00;2.83;;;;;;;14.32;65.70;101889.38;5021911;28;20448;-84
2022/11/02 09:33:54;;;;;;;13.70;2.80;;;;;;;14.38;65.48;101870.50;5022228;28;20098;-80
2022/11/02 09:36:20;;;;;;;11.53;2.87;;;;;;;14.34;64.81;101884.53;5020342;28;21309;-81
2022/11/02 09:38:45;;;;;;;8.50;2.87;;;;;;;14.43;65.83;101885.16;5022446;28;21102;-81
2022/11/02 09:41:17;;;;;;;13.40;3.30;;;;;;;14.35;65.71;101905.31;5021514;28;20045;-83
2022/11/02 09:43:52;;;;;;;14.33;3.67;;;;;;;14.35;66.59;101880.78;5021853;28;20546;-85
2022/11/02 09:46:23;;;;;;;13.97;3.20;;;;;;;14.42;66.41;101883.50;5021728;28;20041;-84
2022/11/02 09:49:00;;;;;;;13.90;3.00;;;;;;;14.73;66.57;101886.59;5037392;28;20778;-86
2022/11/02 09:51:32;;;;;;;14.53;2.87;;;;;;;14.81;65.71;101898.13;5021775;28;20339;-84
2022/11/02 09:54:17;;;;;;;16.07;3.30;;;;;;;15.10;64.79;101895.09;4999598;28;20033;-82
2022/11/02 09:56:43;;;;;;;;;;;;;;;15.67;62.97;101889.75;5022339;28;20037;-84
2022/11/02 09:59:34;;;;;;;12.50;2.97;;;;;;;15.35;64.15;101896.03;5022060;28;20289;-81
2022/11/02 10:02:38;;;;;;;15.73;3.13;;;;;;;15.06;64.61;101907.50;5007312;28;20053;-84
2022/11/02 10:05:28;;;;;;;12.17;3.00;;;;;;;14.83;63.56;101912.38;5020527;28;20091;-83
2022/11/02 10:08:08;;;;;;;15.13;3.03;;;;;;;14.58;64.55;101914.94;5020432;28;20029;-84
2022/11/02 10:11:01;;;;;;;16.33;3.40;;;;;;;14.76;64.80;101918.91;5021461;28;20040;-81
2022/11/02 10:13:37;;;;;;;14.13;3.23;;;;;;;14.91;64.63;101916.78;5020967;28;20482;-82
2022/11/02 10:16:13;;;;;;;11.20;2.50;;;;;;;14.88;63.92;101928.13;5022032;28;20399;-81
2022/11/02 10:18:41;;;;;;;13.70;3.23;;;;;;;14.43;64.66;101926.06;5022163;28;20036;-81
2022/11/02 10:21:20;;;;;;;15.27;3.37;;;;;;;14.65;65.81;101932.16;5012823;28;20041;-86
2022/11/02 10:23:49;;;;;;;14.60;3.50;;;;;;;14.39;64.87;101940.31;5022456;28;20706;-85
2022/11/02 10:26:21;;;;;;;15.10;3.23;;;;;;;14.56;64.89;101949.75;5020935;28;20049;-83
2022/11/02 10:28:49;;;;;;;11.90;3.00;;;;;;;14.52;64.51;101945.78;5004444;28;20049;-82
2022/11/02 10:31:32;;;;;;;17.00;3.87;;;;;;;14.53;65.10;101936.53;5021398;28;20535;-86
2022/11/02 10:34:22;;;;;;;15.57;3.47;;;;;;;14.71;64.10;101935.09;5013524;28;20183;-83
2022/11/02 10:37:25;;;;;;;13.17;3.07;;;;;;;15.21;62.30;101934.53;5020602;28;20033;-83
2022/11/02 10:39:51;;;;;;;10.60;2.80;;;;;;;14.89;61.94;101928.94;5036467;28;20049;-84
2022/11/02 10:42:30;;;;;;;14.13;3.47;;;;;;;14.88;63.52;101932.72;5021083;28;20060;-83
2022/11/02 10:45:11;;;;;;;15.50;3.27;;;;;;;15.07;63.07;101937.31;5021563;28;21225;-81
2022/11/02 10:47:50;;;;;;;13.07;2.63;;;;;;;15.04;61.14;101937.75;5020714;28;20111;-82
2022/11/02 10:51:11;;;;;;;14.23;3.10;;;;;;;15.53;60.21;101960.00;5021447;28;20647;-85
2022/11/02 10:53:46;;;;;;;11.73;2.80;;;;;;;14.93;60.84;101950.16;4973466;28;20050;-85
2022/11/02 10:56:19;;;;;;;;;;;;;;;15.77;58.81;101949.34;5020891;28;20043;-83
2022/11/02 10:58:55;;;;;;;15.47;3.00;;;;;;;14.85;60.58;101953.13;5020883;28;19928;-83
2022/11/02 11:01:21;;;;;;;13.63;3.00;;;;;;;15.11;59.31;101962.25;5019601;28;20041;-86
2022/11/02 11:03:54;;;;;;;12.73;2.90;;;;;;;15.11;60.48;101959.53;5002820;28;20107;-86
2022/11/02 11:06:20;;;;;;;13.30;3.03;;;;;;;15.10;59.80;101961.44;5021219;28;20033;-86
2022/11/02 11:08:48;;;;;;;14.10;2.87;;;;;;;15.02;59.55;101956.19;5020904;28;20033;-81
2022/11/02 11:11:24;;;;;;;14.17;3.10;;;;;;;15.00;61.36;101961.88;5018874;28;20132;-85
2022/11/02 11:14:16;;;;;;;10.87;2.70;;;;;;;14.91;61.06;101951.41;5000563;28;20477;-83
2022/11/02 11:16:48;;;;;;;11.17;2.50;;;;;;;15.08;58.75;101957.22;5015384;28;20072;-89
2022/11/02 11:19:34;;;;;;;13.97;2.93;;;;;;;15.17;59.56;101961.41;5020976;28;20053;-82
2022/11/02 11:22:18;;;;;;;11.00;2.47;;;;;;;15.06;59.01;101952.00;5019399;28;20037;-82
2022/11/02 11:24:45;;;;;;;12.10;2.47;;;;;;;14.89;59.24;101956.22;5001412;28;20069;-86
2022/11/02 11:27:10;;;;;;;12.17;2.63;;;;;;;14.93;59.98;101954.75;5001633;28;20515;-81
2022/11/02 11:29:38;;;;;;;12.03;2.90;;;;;;;14.64;59.51;101967.81;5020346;28;20095;-85
2022/11/02 11:32:14;;;;;;;10.23;2.57;;;;;;;14.75;59.71;101956.25;5019840;28;20029;-80
2022/11/02 11:34:40;;;;;;;10.27;2.40;;;;;;;14.86;57.66;101949.31;5019529;28;20055;-81
2022/11/02 11:37:11;;;;;;;11.87;2.63;;;;;;;14.63;58.02;101953.34;5019443;28;20041;-82
2022/11/02 11:39:42;;;;;;;11.77;2.50;;;;;;;14.73;58.79;101941.16;5001852;28;20075;-81
2022/11/02 11:42:23;;;;;;;11.07;2.73;;;;;;;14.74;57.93;101945.56;5019203;28;20091;-81
2022/11/02 11:44:58;;;;;;;13.47;2.80;;;;;;;14.59;58.26;101932.13;5020043;28;20033;-86
2022/11/02 11:47:27;;;;;;;9.33;2.43;;;;;;;14.37;59.13;101934.25;5018104;28;20045;-84